sensor_id;sensor_type;location;lat;lon;timestamp;pressure;altitude;pressure_sealevel;temperature;humidity
23953;BME280;12163;49.316;6.092;2023-05-25T00:01:37;99978.06;;;11.65;61.15
23953;BME280;12163;49.316;6.092;2023-05-25T00:04:04;99974.56;;;11.65;61.55
23953;BME280;12163;49.316;6.092;2023-05-25T00:06:31;99972.44;;;11.62;61.02
23953;BME280;12163;49.316;6.092;2023-05-25T00:08:58;99969.22;;;11.60;61.25
23953;BME280;12163;49.316;6.092;2023-05-25T00:11:25;99970.00;;;11.55;61.28
23953;BME280;12163;49.316;6.092;2023-05-25T00:13:52;99971.94;;;11.50;61.51
23953;BME280;12163;49.316;6.092;2023-05-25T00:16:19;99959.81;;;11.47;62.17
23953;BME280;12163;49.316;6.092;2023-05-25T00:18:46;99973.59;;;11.46;62.17
23953;BME280;12163;49.316;6.092;2023-05-25T00:21:14;99963.88;;;11.45;62.10
23953;BME280;12163;49.316;6.092;2023-05-25T00:23:41;99965.22;;;11.42;62.51
23953;BME280;12163;49.316;6.092;2023-05-25T00:26:08;99963.34;;;11.43;62.47
23953;BME280;12163;49.316;6.092;2023-05-25T00:28:35;99952.00;;;11.41;62.09
23953;BME280;12163;49.316;6.092;2023-05-25T00:31:02;99959.03;;;11.42;62.82
23953;BME280;12163;49.316;6.092;2023-05-25T00:33:28;99959.28;;;11.40;62.52
23953;BME280;12163;49.316;6.092;2023-05-25T00:35:55;99957.13;;;11.42;62.39
23953;BME280;12163;49.316;6.092;2023-05-25T00:38:22;99957.97;;;11.38;63.42
23953;BME280;12163;49.316;6.092;2023-05-25T00:40:54;99955.84;;;11.35;63.09
23953;BME280;12163;49.316;6.092;2023-05-25T00:43:21;99960.72;;;11.33;63.16
23953;BME280;12163;49.316;6.092;2023-05-25T00:45:49;99966.38;;;11.31;62.74
23953;BME280;12163;49.316;6.092;2023-05-25T00:48:17;99962.88;;;11.31;63.33
23953;BME280;12163;49.316;6.092;2023-05-25T00:50:44;99958.84;;;11.28;63.08
23953;BME280;12163;49.316;6.092;2023-05-25T00:53:12;99958.84;;;11.28;63.13
23953;BME280;12163;49.316;6.092;2023-05-25T00:55:43;99954.25;;;11.29;63.79
23953;BME280;12163;49.316;6.092;2023-05-25T00:58:12;99961.25;;;11.30;63.41
23953;BME280;12163;49.316;6.092;2023-05-25T01:00:40;99964.25;;;11.28;63.72
23953;BME280;12163;49.316;6.092;2023-05-25T01:03:11;99953.19;;;11.25;64.11
23953;BME280;12163;49.316;6.092;2023-05-25T01:05:46;99955.94;;;11.20;63.53
23953;BME280;12163;49.316;6.092;2023-05-25T01:08:16;99958.38;;;11.16;63.52
23953;BME280;12163;49.316;6.092;2023-05-25T01:10:53;99953.25;;;11.15;63.71
23953;BME280;12163;49.316;6.092;2023-05-25T01:13:20;99953.81;;;11.12;64.09
23953;BME280;12163;49.316;6.092;2023-05-25T01:15:47;99958.66;;;11.10;63.80
23953;BME280;12163;49.316;6.092;2023-05-25T01:18:15;99955.72;;;11.06;64.25
23953;BME280;12163;49.316;6.092;2023-05-25T01:21:03;99953.31;;;11.00;64.61
23953;BME280;12163;49.316;6.092;2023-05-25T01:23:46;99955.50;;;10.98;64.75
23953;BME280;12163;49.316;6.092;2023-05-25T01:26:16;99959.00;;;10.98;64.72
23953;BME280;12163;49.316;6.092;2023-05-25T01:28:48;99963.88;;;10.96;64.79
23953;BME280;12163;49.316;6.092;2023-05-25T01:31:17;99958.75;;;10.95;64.77
23953;BME280;12163;49.316;6.092;2023-05-25T01:33:49;99962.56;;;10.94;65.41
23953;BME280;12163;49.316;6.092;2023-05-25T01:36:17;99959.31;;;10.92;65.06
23953;BME280;12163;49.316;6.092;2023-05-25T01:38:44;99957.72;;;10.91;65.30
23953;BME280;12163;49.316;6.092;2023-05-25T01:41:10;99969.59;;;10.90;65.82
23953;BME280;12163;49.316;6.092;2023-05-25T01:43:37;99966.88;;;10.90;65.96
23953;BME280;12163;49.316;6.092;2023-05-25T01:46:35;99977.97;;;10.83;65.22
23953;BME280;12163;49.316;6.092;2023-05-25T01:51:52;99961.00;;;10.78;66.23
23953;BME280;12163;49.316;6.092;2023-05-25T01:54:27;99961.25;;;10.76;66.53
23953;BME280;12163;49.316;6.092;2023-05-25T01:56:57;99960.47;;;10.76;66.44
23953;BME280;12163;49.316;6.092;2023-05-25T01:59:28;99971.00;;;10.72;66.34
23953;BME280;12163;49.316;6.092;2023-05-25T02:01:55;99983.97;;;10.70;66.70
23953;BME280;12163;49.316;6.092;2023-05-25T02:04:23;99974.53;;;10.68;66.64
23953;BME280;12163;49.316;6.092;2023-05-25T02:06:51;99972.38;;;10.70;67.02
23953;BME280;12163;49.316;6.092;2023-05-25T02:09:18;99975.31;;;10.68;66.58
23953;BME280;12163;49.316;6.092;2023-05-25T02:11:44;99972.91;;;10.67;66.80
23953;BME280;12163;49.316;6.092;2023-05-25T02:14:11;99973.44;;;10.64;66.56
23953;BME280;12163;49.316;6.092;2023-05-25T02:16:38;99969.44;;;10.61;66.77
23953;BME280;12163;49.316;6.092;2023-05-25T02:19:05;99966.44;;;10.63;67.15
23953;BME280;12163;49.316;6.092;2023-05-25T02:21:32;99968.59;;;10.61;67.11
23953;BME280;12163;49.316;6.092;2023-05-25T02:24:01;99968.06;;;10.59;67.05
23953;BME280;12163;49.316;6.092;2023-05-25T02:26:28;99970.53;;;10.55;67.76
23953;BME280;12163;49.316;6.092;2023-05-25T02:28:55;99972.66;;;10.53;67.62
23953;BME280;12163;49.316;6.092;2023-05-25T02:31:21;99972.44;;;10.50;67.41
23953;BME280;12163;49.316;6.092;2023-05-25T02:33:48;99970.53;;;10.45;67.46
23953;BME280;12163;49.316;6.092;2023-05-25T02:36:14;99964.88;;;10.42;67.76
23953;BME280;12163;49.316;6.092;2023-05-25T02:38:41;99963.81;;;10.38;67.91
23953;BME280;12163;49.316;6.092;2023-05-25T02:41:08;99967.59;;;10.37;68.35
23953;BME280;12163;49.316;6.092;2023-05-25T02:43:34;99978.69;;;10.35;67.81
23953;BME280;12163;49.316;6.092;2023-05-25T02:46:01;99979.22;;;10.32;67.83
23953;BME280;12163;49.316;6.092;2023-05-25T02:48:28;99982.44;;;10.29;67.85
23953;BME280;12163;49.316;6.092;2023-05-25T02:50:54;99981.66;;;10.29;68.18
23953;BME280;12163;49.316;6.092;2023-05-25T02:53:21;99981.66;;;10.29;68.08
23953;BME280;12163;49.316;6.092;2023-05-25T02:55:48;99985.97;;;10.30;67.84
23953;BME280;12163;49.316;6.092;2023-05-25T02:58:14;99986.22;;;10.28;68.10
23953;BME280;12163;49.316;6.092;2023-05-25T03:00:41;99984.34;;;10.24;68.14
23953;BME280;12163;49.316;6.092;2023-05-25T03:03:08;99990.28;;;10.26;68.44
23953;BME280;12163;49.316;6.092;2023-05-25T03:05:35;99995.69;;;10.26;68.65
23953;BME280;12163;49.316;6.092;2023-05-25T03:08:02;99997.84;;;10.24;68.50
23953;BME280;12163;49.316;6.092;2023-05-25T03:10:28;99997.31;;;10.22;68.36
23953;BME280;12163;49.316;6.092;2023-05-25T03:12:55;99995.13;;;10.19;68.96
23953;BME280;12163;49.316;6.092;2023-05-25T03:15:21;99996.22;;;10.18;68.63
23953;BME280;12163;49.316;6.092;2023-05-25T03:17:48;100003.22;;;10.19;68.50
23953;BME280;12163;49.316;6.092;2023-05-25T03:20:15;100005.38;;;10.17;68.69
23953;BME280;12163;49.316;6.092;2023-05-25T03:22:42;100011.06;;;10.15;68.82
23953;BME280;12163;49.316;6.092;2023-05-25T03:25:09;100007.84;;;10.13;69.13
23953;BME280;12163;49.316;6.092;2023-05-25T03:27:39;100009.72;;;10.13;69.27
23953;BME280;12163;49.316;6.092;2023-05-25T03:30:06;100016.19;;;10.12;69.25
23953;BME280;12163;49.316;6.092;2023-05-25T03:32:33;100016.19;;;10.12;69.21
23953;BME280;12163;49.316;6.092;2023-05-25T03:34:59;100022.66;;;10.11;69.39
23953;BME280;12163;49.316;6.092;2023-05-25T03:37:26;100017.25;;;10.11;69.45
23953;BME280;12163;49.316;6.092;2023-05-25T03:39:53;100015.91;;;10.08;69.52
23953;BME280;12163;49.316;6.092;2023-05-25T03:42:19;100016.97;;;10.07;69.91
23953;BME280;12163;49.316;6.092;2023-05-25T03:44:46;100016.19;;;10.07;69.70
23953;BME280;12163;49.316;6.092;2023-05-25T03:47:12;100011.88;;;10.06;69.75
23953;BME280;12163;49.316;6.092;2023-05-25T03:49:39;100013.75;;;10.05;69.80
23953;BME280;12163;49.316;6.092;2023-05-25T03:52:06;100015.38;;;10.06;69.86
23953;BME280;12163;49.316;6.092;2023-05-25T03:54:32;100011.34;;;10.09;69.69
23953;BME280;12163;49.316;6.092;2023-05-25T03:56:59;100015.66;;;10.10;69.61
23953;BME280;12163;49.316;6.092;2023-05-25T03:59:36;100012.41;;;10.08;69.75
23953;BME280;12163;49.316;6.092;2023-05-25T04:02:03;100012.41;;;10.08;69.90
23953;BME280;12163;49.316;6.092;2023-05-25T04:04:29;100022.66;;;10.11;69.69
23953;BME280;12163;49.316;6.092;2023-05-25T04:06:56;100018.34;;;10.15;70.22
23953;BME280;12163;49.316;6.092;2023-05-25T04:09:22;100024.25;;;10.17;69.75
23953;BME280;12163;49.316;6.092;2023-05-25T04:11:49;100016.16;;;10.17;69.68
23953;BME280;12163;49.316;6.092;2023-05-25T04:14:16;100031.00;;;10.19;69.76
23953;BME280;12163;49.316;6.092;2023-05-25T04:16:43;100029.69;;;10.22;69.64
23953;BME280;12163;49.316;6.092;2023-05-25T04:19:11;100039.63;;;10.26;69.43
23953;BME280;12163;49.316;6.092;2023-05-25T04:21:38;100041.78;;;10.29;69.53
23953;BME280;12163;49.316;6.092;2023-05-25T04:24:05;100038.81;;;10.31;69.69
23953;BME280;12163;49.316;6.092;2023-05-25T04:26:33;100045.59;;;10.33;69.73
23953;BME280;12163;49.316;6.092;2023-05-25T04:28:59;100033.41;;;10.36;69.39
23953;BME280;12163;49.316;6.092;2023-05-25T04:31:27;100046.34;;;10.39;69.79
23953;BME280;12163;49.316;6.092;2023-05-25T04:33:54;100048.50;;;10.42;69.54
23953;BME280;12163;49.316;6.092;2023-05-25T04:36:22;100046.38;;;10.44;69.05
23953;BME280;12163;49.316;6.092;2023-05-25T04:38:49;100045.31;;;10.45;69.49
23953;BME280;12163;49.316;6.092;2023-05-25T04:41:20;100053.63;;;10.48;69.35
23953;BME280;12163;49.316;6.092;2023-05-25T04:43:46;100053.09;;;10.51;68.83
23953;BME280;12163;49.316;6.092;2023-05-25T04:46:30;100052.81;;;10.53;69.09
23953;BME280;12163;49.316;6.092;2023-05-25T04:48:57;100054.72;;;10.57;69.18
23953;BME280;12163;49.316;6.092;2023-05-25T04:51:24;100054.41;;;10.64;68.63
23953;BME280;12163;49.316;6.092;2023-05-25T04:53:50;100057.38;;;10.72;68.70
23953;BME280;12163;49.316;6.092;2023-05-25T04:56:17;100064.94;;;10.80;68.85
23953;BME280;12163;49.316;6.092;2023-05-25T04:58:44;100060.69;;;11.28;68.95
23953;BME280;12163;49.316;6.092;2023-05-25T05:01:10;100066.53;;;11.60;67.51
23953;BME280;12163;49.316;6.092;2023-05-25T05:03:37;100059.47;;;12.02;65.57
23953;BME280;12163;49.316;6.092;2023-05-25T05:06:04;100064.09;;;12.01;64.15
23953;BME280;12163;49.316;6.092;2023-05-25T05:08:30;100064.78;;;12.17;65.72
23953;BME280;12163;49.316;6.092;2023-05-25T05:10:57;100072.34;;;12.48;63.67
23953;BME280;12163;49.316;6.092;2023-05-25T05:13:23;100080.28;;;12.68;63.43
23953;BME280;12163;49.316;6.092;2023-05-25T05:15:50;100091.56;;;12.75;64.49
23953;BME280;12163;49.316;6.092;2023-05-25T05:18:17;100095.22;;;12.94;62.95
23953;BME280;12163;49.316;6.092;2023-05-25T05:20:43;100085.00;;;12.81;61.72
23953;BME280;12163;49.316;6.092;2023-05-25T05:23:10;100089.66;;;12.76;62.29
23953;BME280;12163;49.316;6.092;2023-05-25T05:25:37;100091.19;;;12.58;62.01
23953;BME280;12163;49.316;6.092;2023-05-25T05:28:03;100100.53;;;12.42;62.44
23953;BME280;12163;49.316;6.092;2023-05-25T05:30:30;100101.25;;;12.24;63.55
23953;BME280;12163;49.316;6.092;2023-05-25T05:32:57;100106.88;;;12.61;64.53
23953;BME280;12163;49.316;6.092;2023-05-25T05:35:23;100094.16;;;12.85;62.29
23953;BME280;12163;49.316;6.092;2023-05-25T05:37:50;100100.75;;;12.79;63.46
23953;BME280;12163;49.316;6.092;2023-05-25T05:40:16;100101.50;;;13.13;61.77
23953;BME280;12163;49.316;6.092;2023-05-25T05:42:43;100101.72;;;13.17;61.85
23953;BME280;12163;49.316;6.092;2023-05-25T05:45:10;100107.56;;;13.29;61.29
23953;BME280;12163;49.316;6.092;2023-05-25T05:47:37;100097.00;;;13.27;61.23
23953;BME280;12163;49.316;6.092;2023-05-25T05:50:04;100098.44;;;13.43;60.81
23953;BME280;12163;49.316;6.092;2023-05-25T05:52:31;100090.19;;;13.90;60.93
23953;BME280;12163;49.316;6.092;2023-05-25T05:54:58;100100.69;;;14.33;59.20
23953;BME280;12163;49.316;6.092;2023-05-25T05:57:25;100097.75;;;14.62;58.14
23953;BME280;12163;49.316;6.092;2023-05-25T05:59:51;100105.75;;;14.53;57.58
23953;BME280;12163;49.316;6.092;2023-05-25T06:02:18;100101.59;;;14.74;57.35
23953;BME280;12163;49.316;6.092;2023-05-25T06:04:45;100106.50;;;14.59;55.77
23953;BME280;12163;49.316;6.092;2023-05-25T06:07:11;100107.22;;;14.32;57.46
23953;BME280;12163;49.316;6.092;2023-05-25T06:09:38;100103.97;;;14.12;57.77
23953;BME280;12163;49.316;6.092;2023-05-25T06:12:05;100103.41;;;14.33;58.55
23953;BME280;12163;49.316;6.092;2023-05-25T06:14:31;100102.84;;;14.50;57.53
23953;BME280;12163;49.316;6.092;2023-05-25T06:16:58;100109.66;;;14.47;57.55
23953;BME280;12163;49.316;6.092;2023-05-25T06:19:25;100117.41;;;14.40;57.02
23953;BME280;12163;49.316;6.092;2023-05-25T06:21:52;100112.19;;;14.44;57.94
23953;BME280;12163;49.316;6.092;2023-05-25T06:24:18;100109.53;;;14.57;57.05
23953;BME280;12163;49.316;6.092;2023-05-25T06:26:45;100110.56;;;14.75;57.72
23953;BME280;12163;49.316;6.092;2023-05-25T06:29:13;100108.25;;;14.82;55.95
23953;BME280;12163;49.316;6.092;2023-05-25T06:31:42;100116.22;;;14.78;55.85
23953;BME280;12163;49.316;6.092;2023-05-25T06:34:09;100109.69;;;14.79;57.31
23953;BME280;12163;49.316;6.092;2023-05-25T06:36:36;100107.22;;;15.10;56.90
23953;BME280;12163;49.316;6.092;2023-05-25T06:39:03;100111.34;;;15.34;56.03
23953;BME280;12163;49.316;6.092;2023-05-25T06:41:29;100108.94;;;15.59;55.64
23953;BME280;12163;49.316;6.092;2023-05-25T06:43:56;100114.75;;;15.66;54.46
23953;BME280;12163;49.316;6.092;2023-05-25T06:46:23;100120.13;;;15.44;54.05
23953;BME280;12163;49.316;6.092;2023-05-25T06:48:49;100115.50;;;15.58;54.41
23953;BME280;12163;49.316;6.092;2023-05-25T06:51:16;100107.47;;;15.75;53.97
23953;BME280;12163;49.316;6.092;2023-05-25T06:53:43;100109.66;;;16.00;53.80
23953;BME280;12163;49.316;6.092;2023-05-25T06:56:09;100100.28;;;16.28;52.97
23953;BME280;12163;49.316;6.092;2023-05-25T06:58:36;100099.19;;;16.51;52.14
23953;BME280;12163;49.316;6.092;2023-05-25T07:01:03;100100.31;;;16.72;52.78
23953;BME280;12163;49.316;6.092;2023-05-25T07:03:30;100103.88;;;16.81;50.57
23953;BME280;12163;49.316;6.092;2023-05-25T07:05:57;100092.00;;;16.55;50.21
23953;BME280;12163;49.316;6.092;2023-05-25T07:08:25;100104.16;;;16.49;51.56
23953;BME280;12163;49.316;6.092;2023-05-25T07:10:51;100100.38;;;16.59;50.63
23953;BME280;12163;49.316;6.092;2023-05-25T07:13:18;100099.31;;;16.68;51.10
23953;BME280;12163;49.316;6.092;2023-05-25T07:15:45;100091.72;;;16.87;50.59
23953;BME280;12163;49.316;6.092;2023-05-25T07:18:12;100090.53;;;17.01;50.78
23953;BME280;12163;49.316;6.092;2023-05-25T07:20:40;100085.72;;;17.07;48.65
23953;BME280;12163;49.316;6.092;2023-05-25T07:23:10;100094.53;;;17.04;49.12
23953;BME280;12163;49.316;6.092;2023-05-25T07:25:37;100096.31;;;17.08;49.09
23953;BME280;12163;49.316;6.092;2023-05-25T07:28:04;100091.78;;;17.04;48.60
23953;BME280;12163;49.316;6.092;2023-05-25T07:30:32;100094.06;;;17.10;49.14
23953;BME280;12163;49.316;6.092;2023-05-25T07:32:59;100100.53;;;17.23;48.10
23953;BME280;12163;49.316;6.092;2023-05-25T07:35:26;100103.28;;;17.23;47.19
23953;BME280;12163;49.316;6.092;2023-05-25T07:37:57;100101.19;;;17.20;46.76
23953;BME280;12163;49.316;6.092;2023-05-25T07:40:24;100111.31;;;16.97;47.02
23953;BME280;12163;49.316;6.092;2023-05-25T07:42:52;100102.34;;;16.67;47.81
23953;BME280;12163;49.316;6.092;2023-05-25T07:45:19;100105.97;;;16.54;49.04
23953;BME280;12163;49.316;6.092;2023-05-25T07:47:46;100113.19;;;16.58;48.59
23953;BME280;12163;49.316;6.092;2023-05-25T07:50:14;100111.44;;;16.62;47.71
23953;BME280;12163;49.316;6.092;2023-05-25T07:52:41;100113.31;;;16.53;48.52
23953;BME280;12163;49.316;6.092;2023-05-25T07:55:08;100112.31;;;16.49;47.94
23953;BME280;12163;49.316;6.092;2023-05-25T07:57:35;100112.50;;;16.53;48.03
23953;BME280;12163;49.316;6.092;2023-05-25T08:00:02;100100.09;;;16.69;48.09
23953;BME280;12163;49.316;6.092;2023-05-25T08:02:36;100100.66;;;16.79;47.00
23953;BME280;12163;49.316;6.092;2023-05-25T08:05:03;100100.41;;;16.89;47.67
23953;BME280;12163;49.316;6.092;2023-05-25T08:07:32;100107.72;;;17.10;47.51
23953;BME280;12163;49.316;6.092;2023-05-25T08:09:59;100106.44;;;17.16;47.34
23953;BME280;12163;49.316;6.092;2023-05-25T08:12:26;100106.34;;;17.30;46.31
23953;BME280;12163;49.316;6.092;2023-05-25T08:15:11;100103.56;;;17.52;46.68
23953;BME280;12163;49.316;6.092;2023-05-25T08:17:38;100102.31;;;17.75;46.47
23953;BME280;12163;49.316;6.092;2023-05-25T08:20:06;100103.47;;;17.82;44.16
23953;BME280;12163;49.316;6.092;2023-05-25T08:22:34;100103.31;;;17.79;44.02
23953;BME280;12163;49.316;6.092;2023-05-25T08:25:02;100101.03;;;17.64;45.19
23953;BME280;12163;49.316;6.092;2023-05-25T08:27:29;100096.53;;;17.68;45.54
23953;BME280;12163;49.316;6.092;2023-05-25T08:30:00;100115.19;;;17.83;45.47
23953;BME280;12163;49.316;6.092;2023-05-25T08:32:27;100107.78;;;17.83;42.91
23953;BME280;12163;49.316;6.092;2023-05-25T08:34:54;100101.38;;;17.79;44.91
23953;BME280;12163;49.316;6.092;2023-05-25T08:37:21;100108.28;;;17.94;44.95
23953;BME280;12163;49.316;6.092;2023-05-25T08:39:49;100104.47;;;18.12;44.31
23953;BME280;12163;49.316;6.092;2023-05-25T08:42:15;100100.13;;;18.19;43.25
23953;BME280;12163;49.316;6.092;2023-05-25T08:44:42;100099.66;;;18.26;43.84
23953;BME280;12163;49.316;6.092;2023-05-25T08:47:10;100095.00;;;18.35;43.53
23953;BME280;12163;49.316;6.092;2023-05-25T08:49:38;100102.06;;;18.36;43.50
23953;BME280;12163;49.316;6.092;2023-05-25T08:52:10;100096.13;;;18.34;43.53
23953;BME280;12163;49.316;6.092;2023-05-25T08:54:38;100105.28;;;18.21;42.54
23953;BME280;12163;49.316;6.092;2023-05-25T08:57:16;100099.97;;;18.24;42.18
23953;BME280;12163;49.316;6.092;2023-05-25T08:59:52;100108.63;;;18.26;42.58
23953;BME280;12163;49.316;6.092;2023-05-25T09:02:45;100112.22;;;18.35;43.85
23953;BME280;12163;49.316;6.092;2023-05-25T09:05:15;100101.09;;;18.49;43.24
23953;BME280;12163;49.316;6.092;2023-05-25T09:07:42;100098.50;;;18.61;43.33
23953;BME280;12163;49.316;6.092;2023-05-25T09:10:13;100109.13;;;18.62;43.39
23953;BME280;12163;49.316;6.092;2023-05-25T09:12:41;100104.44;;;18.71;42.36
23953;BME280;12163;49.316;6.092;2023-05-25T09:15:11;100092.81;;;18.82;42.88
23953;BME280;12163;49.316;6.092;2023-05-25T09:17:38;100106.81;;;18.89;43.62
23953;BME280;12163;49.316;6.092;2023-05-25T09:20:09;100100.38;;;18.85;42.48
23953;BME280;12163;49.316;6.092;2023-05-25T09:22:36;100103.94;;;18.77;41.49
23953;BME280;12163;49.316;6.092;2023-05-25T09:25:05;100105.84;;;18.85;42.08
23953;BME280;12163;49.316;6.092;2023-05-25T09:27:34;100107.59;;;18.98;41.65
23953;BME280;12163;49.316;6.092;2023-05-25T09:30:03;100111.13;;;18.99;41.02
23953;BME280;12163;49.316;6.092;2023-05-25T09:32:30;100100.81;;;18.96;41.91
23953;BME280;12163;49.316;6.092;2023-05-25T09:35:08;100111.41;;;19.14;41.93
23953;BME280;12163;49.316;6.092;2023-05-25T09:37:35;100112.03;;;19.20;40.80
23953;BME280;12163;49.316;6.092;2023-05-25T09:40:04;100108.03;;;19.17;40.94
23953;BME280;12163;49.316;6.092;2023-05-25T09:42:35;100113.50;;;19.17;41.10
23953;BME280;12163;49.316;6.092;2023-05-25T09:45:03;100104.16;;;19.18;40.81
23953;BME280;12163;49.316;6.092;2023-05-25T09:47:30;100104.81;;;19.15;41.20
23953;BME280;12163;49.316;6.092;2023-05-25T09:49:57;100108.78;;;19.26;41.20
23953;BME280;12163;49.316;6.092;2023-05-25T09:52:24;100109.22;;;19.37;40.96
23953;BME280;12163;49.316;6.092;2023-05-25T09:54:51;100090.22;;;19.40;41.30
23953;BME280;12163;49.316;6.092;2023-05-25T09:57:19;100102.69;;;19.58;41.42
23953;BME280;12163;49.316;6.092;2023-05-25T09:59:46;100101.59;;;19.80;40.42
23953;BME280;12163;49.316;6.092;2023-05-25T10:02:13;100099.94;;;19.87;39.91
23953;BME280;12163;49.316;6.092;2023-05-25T10:04:40;100095.38;;;19.91;40.19
23953;BME280;12163;49.316;6.092;2023-05-25T10:07:08;100092.09;;;20.06;39.88
23953;BME280;12163;49.316;6.092;2023-05-25T10:09:39;100090.88;;;20.16;39.54
23953;BME280;12163;49.316;6.092;2023-05-25T10:12:09;100094.28;;;20.33;39.49
23953;BME280;12163;49.316;6.092;2023-05-25T10:14:37;100098.34;;;20.48;38.95
23953;BME280;12163;49.316;6.092;2023-05-25T10:17:05;100095.13;;;20.46;38.06
23953;BME280;12163;49.316;6.092;2023-05-25T10:19:36;100090.56;;;20.49;38.00
23953;BME280;12163;49.316;6.092;2023-05-25T10:22:39;100093.00;;;20.51;38.28
23953;BME280;12163;49.316;6.092;2023-05-25T10:25:16;100095.97;;;20.58;38.17
23953;BME280;12163;49.316;6.092;2023-05-25T10:27:46;100091.88;;;20.64;38.41
23953;BME280;12163;49.316;6.092;2023-05-25T10:30:14;100101.75;;;20.77;38.35
23953;BME280;12163;49.316;6.092;2023-05-25T10:32:43;100095.75;;;20.83;37.70
23953;BME280;12163;49.316;6.092;2023-05-25T10:35:10;100086.50;;;20.88;36.93
23953;BME280;12163;49.316;6.092;2023-05-25T10:37:38;100076.44;;;20.92;37.22
23953;BME280;12163;49.316;6.092;2023-05-25T10:40:06;100096.59;;;21.08;37.06
23953;BME280;12163;49.316;6.092;2023-05-25T10:42:36;100087.56;;;21.19;37.29
23953;BME280;12163;49.316;6.092;2023-05-25T10:45:05;100085.84;;;21.27;36.55
23953;BME280;12163;49.316;6.092;2023-05-25T10:47:36;100081.50;;;21.26;35.94
23953;BME280;12163;49.316;6.092;2023-05-25T10:50:04;100084.28;;;21.38;36.98
23953;BME280;12163;49.316;6.092;2023-05-25T10:52:31;100082.44;;;21.54;35.21
23953;BME280;12163;49.316;6.092;2023-05-25T10:54:59;100081.50;;;21.50;35.28
23953;BME280;12163;49.316;6.092;2023-05-25T10:57:30;100083.00;;;21.47;35.37
23953;BME280;12163;49.316;6.092;2023-05-25T11:00:03;100087.50;;;21.64;36.20
23953;BME280;12163;49.316;6.092;2023-05-25T11:02:51;100083.81;;;21.84;35.93
23953;BME280;12163;49.316;6.092;2023-05-25T11:08:02;100073.63;;;22.24;35.24
23953;BME280;12163;49.316;6.092;2023-05-25T11:13:32;100072.94;;;22.27;35.41
23953;BME280;12163;49.316;6.092;2023-05-25T11:18:54;100082.75;;;22.39;34.58
23953;BME280;12163;49.316;6.092;2023-05-25T11:26:20;100068.09;;;21.96;35.46
23953;BME280;12163;49.316;6.092;2023-05-25T11:28:50;100064.97;;;22.10;35.16
23953;BME280;12163;49.316;6.092;2023-05-25T11:31:34;100074.97;;;22.29;35.22
23953;BME280;12163;49.316;6.092;2023-05-25T11:34:08;100068.94;;;22.51;34.77
23953;BME280;12163;49.316;6.092;2023-05-25T11:36:37;100071.38;;;22.53;33.99
23953;BME280;12163;49.316;6.092;2023-05-25T11:39:04;100066.84;;;22.60;35.79
23953;BME280;12163;49.316;6.092;2023-05-25T11:41:51;100063.16;;;22.84;34.75
23953;BME280;12163;49.316;6.092;2023-05-25T11:44:32;100057.91;;;22.79;33.85
23953;BME280;12163;49.316;6.092;2023-05-25T11:47:00;100040.50;;;22.75;34.04
23953;BME280;12163;49.316;6.092;2023-05-25T11:49:27;100039.00;;;22.77;34.48
23953;BME280;12163;49.316;6.092;2023-05-25T11:51:56;100040.59;;;22.78;34.31
23953;BME280;12163;49.316;6.092;2023-05-25T11:54:24;100032.34;;;22.78;34.93
23953;BME280;12163;49.316;6.092;2023-05-25T11:56:52;100026.66;;;22.71;34.80
23953;BME280;12163;49.316;6.092;2023-05-25T11:59:19;100033.66;;;22.84;34.95
23953;BME280;12163;49.316;6.092;2023-05-25T12:01:57;100048.06;;;22.93;34.27
23953;BME280;12163;49.316;6.092;2023-05-25T12:04:25;100040.53;;;22.90;34.74
23953;BME280;12163;49.316;6.092;2023-05-25T12:06:52;100028.88;;;22.81;34.00
23953;BME280;12163;49.316;6.092;2023-05-25T12:09:24;100030.13;;;22.68;34.37
23953;BME280;12163;49.316;6.092;2023-05-25T12:11:50;100043.78;;;22.80;34.20
23953;BME280;12163;49.316;6.092;2023-05-25T12:14:17;100029.84;;;22.89;34.06
23953;BME280;12163;49.316;6.092;2023-05-25T12:16:44;100023.63;;;22.92;33.44
23953;BME280;12163;49.316;6.092;2023-05-25T12:19:11;100024.25;;;22.85;34.51
23953;BME280;12163;49.316;6.092;2023-05-25T12:21:39;100036.19;;;23.05;34.37
23953;BME280;12163;49.316;6.092;2023-05-25T12:24:08;100038.56;;;23.06;34.14
23953;BME280;12163;49.316;6.092;2023-05-25T12:26:46;100028.69;;;23.05;34.40
23953;BME280;12163;49.316;6.092;2023-05-25T12:29:12;100029.63;;;23.09;34.49
23953;BME280;12163;49.316;6.092;2023-05-25T12:31:39;100034.75;;;23.26;34.27
23953;BME280;12163;49.316;6.092;2023-05-25T12:34:16;100035.63;;;23.46;33.85
23953;BME280;12163;49.316;6.092;2023-05-25T12:36:50;100018.69;;;23.44;33.41
23953;BME280;12163;49.316;6.092;2023-05-25T12:42:02;100017.34;;;23.72;33.77
23953;BME280;12163;49.316;6.092;2023-05-25T12:44:30;100021.84;;;23.80;33.29
23953;BME280;12163;49.316;6.092;2023-05-25T12:47:20;100030.88;;;23.96;33.88
23953;BME280;12163;49.316;6.092;2023-05-25T12:49:50;100022.41;;;24.05;32.67
23953;BME280;12163;49.316;6.092;2023-05-25T12:52:35;100025.44;;;24.00;32.50
23953;BME280;12163;49.316;6.092;2023-05-25T12:55:27;100021.94;;;23.84;32.52
23953;BME280;12163;49.316;6.092;2023-05-25T13:00:38;100024.34;;;23.85;32.63
23953;BME280;12163;49.316;6.092;2023-05-25T13:03:05;100025.34;;;23.77;33.24
23953;BME280;12163;49.316;6.092;2023-05-25T13:05:36;100023.06;;;23.98;32.92
23953;BME280;12163;49.316;6.092;2023-05-25T13:08:04;100020.72;;;24.19;32.73
23953;BME280;12163;49.316;6.092;2023-05-25T13:10:32;100013.16;;;24.35;32.14
23953;BME280;12163;49.316;6.092;2023-05-25T13:12:59;100023.19;;;24.43;32.71
23953;BME280;12163;49.316;6.092;2023-05-25T13:15:27;100023.06;;;24.55;31.99
23953;BME280;12163;49.316;6.092;2023-05-25T13:17:54;100009.38;;;24.62;32.26
23953;BME280;12163;49.316;6.092;2023-05-25T13:20:24;100013.25;;;24.80;31.87
23953;BME280;12163;49.316;6.092;2023-05-25T13:22:53;100017.44;;;24.93;31.09